sensor_id;sensor_type;location;lat;lon;timestamp;temperature;humidity
78767;SHT31;68092;51.982;5.680;2023-05-29T00:01:10;16.8;52.0
78767;SHT31;68092;51.982;5.680;2023-05-29T00:03:39;16.8;52.0
78767;SHT31;68092;51.982;5.680;2023-05-29T00:06:09;16.7;52.2
78767;SHT31;68092;51.982;5.680;2023-05-29T00:08:39;16.7;52.5
78767;SHT31;68092;51.982;5.680;2023-05-29T00:11:13;16.6;52.4
78767;SHT31;68092;51.982;5.680;2023-05-29T00:13:43;16.6;52.4
78767;SHT31;68092;51.982;5.680;2023-05-29T00:16:12;16.6;52.4
78767;SHT31;68092;51.982;5.680;2023-05-29T00:18:42;16.6;52.8
78767;SHT31;68092;51.982;5.680;2023-05-29T00:21:13;16.5;52.8
78767;SHT31;68092;51.982;5.680;2023-05-29T00:23:43;16.5;52.8
78767;SHT31;68092;51.982;5.680;2023-05-29T00:26:15;16.4;53.0
78767;SHT31;68092;51.982;5.680;2023-05-29T00:28:44;16.4;53.0
78767;SHT31;68092;51.982;5.680;2023-05-29T00:31:14;16.4;53.1
78767;SHT31;68092;51.982;5.680;2023-05-29T00:33:44;16.3;53.2
78767;SHT31;68092;51.982;5.680;2023-05-29T00:36:13;16.3;53.3
78767;SHT31;68092;51.982;5.680;2023-05-29T00:38:43;16.3;53.5
78767;SHT31;68092;51.982;5.680;2023-05-29T00:41:15;16.2;53.5
78767;SHT31;68092;51.982;5.680;2023-05-29T00:43:45;16.2;53.7
78767;SHT31;68092;51.982;5.680;2023-05-29T00:46:16;16.1;53.9
78767;SHT31;68092;51.982;5.680;2023-05-29T00:48:49;16.1;53.7
78767;SHT31;68092;51.982;5.680;2023-05-29T00:51:20;16.1;53.6
78767;SHT31;68092;51.982;5.680;2023-05-29T00:53:50;16.1;53.8
78767;SHT31;68092;51.982;5.680;2023-05-29T00:56:23;16.0;53.8
78767;SHT31;68092;51.982;5.680;2023-05-29T00:58:54;16.0;53.3
78767;SHT31;68092;51.982;5.680;2023-05-29T01:01:26;16.0;53.3
78767;SHT31;68092;51.982;5.680;2023-05-29T01:04:00;16.0;53.4
78767;SHT31;68092;51.982;5.680;2023-05-29T01:06:31;16.0;53.0
78767;SHT31;68092;51.982;5.680;2023-05-29T01:09:00;16.0;53.0
78767;SHT31;68092;51.982;5.680;2023-05-29T01:11:40;16.0;53.1
78767;SHT31;68092;51.982;5.680;2023-05-29T01:14:20;16.0;53.2
78767;SHT31;68092;51.982;5.680;2023-05-29T01:17:02;16.0;52.8
78767;SHT31;68092;51.982;5.680;2023-05-29T01:19:51;16.0;52.8
78767;SHT31;68092;51.982;5.680;2023-05-29T01:22:34;16.0;52.6
78767;SHT31;68092;51.982;5.680;2023-05-29T01:25:16;15.9;52.6
78767;SHT31;68092;51.982;5.680;2023-05-29T01:27:48;15.9;52.8
78767;SHT31;68092;51.982;5.680;2023-05-29T01:30:20;15.9;52.8
78767;SHT31;68092;51.982;5.680;2023-05-29T01:32:52;15.9;52.7
78767;SHT31;68092;51.982;5.680;2023-05-29T01:35:23;15.9;53.0
78767;SHT31;68092;51.982;5.680;2023-05-29T01:37:52;15.9;53.0
78767;SHT31;68092;51.982;5.680;2023-05-29T01:40:22;15.8;53.0
78767;SHT31;68092;51.982;5.680;2023-05-29T01:42:52;15.8;52.6
78767;SHT31;68092;51.982;5.680;2023-05-29T01:45:26;15.8;53.1
78767;SHT31;68092;51.982;5.680;2023-05-29T01:47:57;15.7;52.8
78767;SHT31;68092;51.982;5.680;2023-05-29T01:50:31;15.7;53.5
78767;SHT31;68092;51.982;5.680;2023-05-29T01:53:01;15.6;53.4
78767;SHT31;68092;51.982;5.680;2023-05-29T01:55:31;15.6;53.3
78767;SHT31;68092;51.982;5.680;2023-05-29T01:58:01;15.6;53.3
78767;SHT31;68092;51.982;5.680;2023-05-29T02:00:31;15.5;53.7
78767;SHT31;68092;51.982;5.680;2023-05-29T02:03:01;15.5;53.9
78767;SHT31;68092;51.982;5.680;2023-05-29T02:05:31;15.5;53.8
78767;SHT31;68092;51.982;5.680;2023-05-29T02:08:01;15.4;53.7
78767;SHT31;68092;51.982;5.680;2023-05-29T02:10:30;15.4;54.2
78767;SHT31;68092;51.982;5.680;2023-05-29T02:13:00;15.4;54.1
78767;SHT31;68092;51.982;5.680;2023-05-29T02:15:30;15.3;54.2
78767;SHT31;68092;51.982;5.680;2023-05-29T02:17:59;15.3;54.4
78767;SHT31;68092;51.982;5.680;2023-05-29T02:20:31;15.2;54.5
78767;SHT31;68092;51.982;5.680;2023-05-29T02:23:00;15.2;54.8
78767;SHT31;68092;51.982;5.680;2023-05-29T02:25:30;15.1;54.9
78767;SHT31;68092;51.982;5.680;2023-05-29T02:28:00;15.1;54.9
78767;SHT31;68092;51.982;5.680;2023-05-29T02:30:30;15.1;54.9
78767;SHT31;68092;51.982;5.680;2023-05-29T02:33:00;15.0;54.9
78767;SHT31;68092;51.982;5.680;2023-05-29T02:35:30;15.0;55.4
78767;SHT31;68092;51.982;5.680;2023-05-29T02:37:59;15.0;55.1
78767;SHT31;68092;51.982;5.680;2023-05-29T02:40:29;14.9;55.4
78767;SHT31;68092;51.982;5.680;2023-05-29T02:42:58;14.9;55.3
78767;SHT31;68092;51.982;5.680;2023-05-29T02:45:28;14.9;55.3
78767;SHT31;68092;51.982;5.680;2023-05-29T02:47:58;14.9;55.4
78767;SHT31;68092;51.982;5.680;2023-05-29T02:50:28;14.8;55.5
78767;SHT31;68092;51.982;5.680;2023-05-29T02:52:58;14.8;55.3
78767;SHT31;68092;51.982;5.680;2023-05-29T02:55:28;14.8;55.5
78767;SHT31;68092;51.982;5.680;2023-05-29T02:57:59;14.7;55.8
78767;SHT31;68092;51.982;5.680;2023-05-29T03:00:29;14.7;55.7
78767;SHT31;68092;51.982;5.680;2023-05-29T03:02:59;14.7;55.7
78767;SHT31;68092;51.982;5.680;2023-05-29T03:05:30;14.7;55.7
78767;SHT31;68092;51.982;5.680;2023-05-29T03:08:00;14.6;55.5
78767;SHT31;68092;51.982;5.680;2023-05-29T03:10:29;14.6;55.9
78767;SHT31;68092;51.982;5.680;2023-05-29T03:12:59;14.6;55.8
78767;SHT31;68092;51.982;5.680;2023-05-29T03:15:29;14.5;55.8
78767;SHT31;68092;51.982;5.680;2023-05-29T03:17:59;14.5;56.0
78767;SHT31;68092;51.982;5.680;2023-05-29T03:20:28;14.5;56.0
78767;SHT31;68092;51.982;5.680;2023-05-29T03:22:58;14.5;55.9
78767;SHT31;68092;51.982;5.680;2023-05-29T03:25:31;14.4;56.2
78767;SHT31;68092;51.982;5.680;2023-05-29T03:28:02;14.4;56.1
78767;SHT31;68092;51.982;5.680;2023-05-29T03:30:33;14.4;56.2
78767;SHT31;68092;51.982;5.680;2023-05-29T03:33:03;14.4;56.1
78767;SHT31;68092;51.982;5.680;2023-05-29T03:35:33;14.3;55.8
78767;SHT31;68092;51.982;5.680;2023-05-29T03:38:03;14.3;55.9
78767;SHT31;68092;51.982;5.680;2023-05-29T03:40:32;14.3;56.1
78767;SHT31;68092;51.982;5.680;2023-05-29T03:43:02;14.3;56.0
78767;SHT31;68092;51.982;5.680;2023-05-29T03:45:33;14.2;56.2
78767;SHT31;68092;51.982;5.680;2023-05-29T03:48:05;14.2;56.3
78767;SHT31;68092;51.982;5.680;2023-05-29T03:50:35;14.2;56.4
78767;SHT31;68092;51.982;5.680;2023-05-29T03:53:04;14.2;56.4
78767;SHT31;68092;51.982;5.680;2023-05-29T03:55:34;14.2;56.2
78767;SHT31;68092;51.982;5.680;2023-05-29T03:58:04;14.1;56.2
78767;SHT31;68092;51.982;5.680;2023-05-29T04:00:34;14.1;56.4
78767;SHT31;68092;51.982;5.680;2023-05-29T04:03:05;14.1;56.5
78767;SHT31;68092;51.982;5.680;2023-05-29T04:05:35;14.1;56.4
78767;SHT31;68092;51.982;5.680;2023-05-29T04:08:05;14.1;56.5
78767;SHT31;68092;51.982;5.680;2023-05-29T04:10:36;14.1;56.5
78767;SHT31;68092;51.982;5.680;2023-05-29T04:13:06;14.1;56.3
78767;SHT31;68092;51.982;5.680;2023-05-29T04:15:37;14.0;56.2
78767;SHT31;68092;51.982;5.680;2023-05-29T04:18:09;14.0;56.2
78767;SHT31;68092;51.982;5.680;2023-05-29T04:20:38;14.0;56.3
78767;SHT31;68092;51.982;5.680;2023-05-29T04:23:09;14.0;56.2
78767;SHT31;68092;51.982;5.680;2023-05-29T04:25:38;14.0;56.5
78767;SHT31;68092;51.982;5.680;2023-05-29T04:28:08;14.0;56.2
78767;SHT31;68092;51.982;5.680;2023-05-29T04:30:39;14.0;56.3
78767;SHT31;68092;51.982;5.680;2023-05-29T04:33:09;14.0;56.4
78767;SHT31;68092;51.982;5.680;2023-05-29T04:35:39;14.0;56.0
78767;SHT31;68092;51.982;5.680;2023-05-29T04:38:10;14.0;56.5
78767;SHT31;68092;51.982;5.680;2023-05-29T04:40:40;14.0;56.6
78767;SHT31;68092;51.982;5.680;2023-05-29T04:43:11;14.0;56.6
78767;SHT31;68092;51.982;5.680;2023-05-29T04:45:43;14.0;56.4
78767;SHT31;68092;51.982;5.680;2023-05-29T04:48:12;14.0;56.5
78767;SHT31;68092;51.982;5.680;2023-05-29T04:50:43;14.0;56.2
78767;SHT31;68092;51.982;5.680;2023-05-29T04:53:16;14.0;56.7
78767;SHT31;68092;51.982;5.680;2023-05-29T04:55:45;14.0;56.3
78767;SHT31;68092;51.982;5.680;2023-05-29T04:58:15;14.1;56.2
78767;SHT31;68092;51.982;5.680;2023-05-29T05:00:44;14.1;56.0
78767;SHT31;68092;51.982;5.680;2023-05-29T05:03:15;14.1;56.6
78767;SHT31;68092;51.982;5.680;2023-05-29T05:05:48;14.1;56.3
78767;SHT31;68092;51.982;5.680;2023-05-29T05:08:19;14.1;56.4
78767;SHT31;68092;51.982;5.680;2023-05-29T05:10:52;14.1;56.1
78767;SHT31;68092;51.982;5.680;2023-05-29T05:13:21;14.2;55.7
78767;SHT31;68092;51.982;5.680;2023-05-29T05:15:51;14.2;56.0
78767;SHT31;68092;51.982;5.680;2023-05-29T05:18:21;14.2;55.4
78767;SHT31;68092;51.982;5.680;2023-05-29T05:20:51;14.2;55.6
78767;SHT31;68092;51.982;5.680;2023-05-29T05:23:20;14.2;55.5
78767;SHT31;68092;51.982;5.680;2023-05-29T05:25:50;14.3;55.6
78767;SHT31;68092;51.982;5.680;2023-05-29T05:28:19;14.3;55.1
78767;SHT31;68092;51.982;5.680;2023-05-29T05:30:51;14.3;55.6
78767;SHT31;68092;51.982;5.680;2023-05-29T05:33:20;14.3;55.6
78767;SHT31;68092;51.982;5.680;2023-05-29T05:35:50;14.3;55.8
78767;SHT31;68092;51.982;5.680;2023-05-29T05:38:20;14.4;54.7
78767;SHT31;68092;51.982;5.680;2023-05-29T05:40:49;14.4;55.0
78767;SHT31;68092;51.982;5.680;2023-05-29T05:43:19;14.5;55.3
78767;SHT31;68092;51.982;5.680;2023-05-29T05:45:50;14.5;55.0
78767;SHT31;68092;51.982;5.680;2023-05-29T05:48:20;14.6;55.1
78767;SHT31;68092;51.982;5.680;2023-05-29T05:50:49;14.7;53.7
78767;SHT31;68092;51.982;5.680;2023-05-29T05:53:21;14.7;53.5
78767;SHT31;68092;51.982;5.680;2023-05-29T05:55:50;14.8;53.8
78767;SHT31;68092;51.982;5.680;2023-05-29T05:58:21;14.8;53.5
78767;SHT31;68092;51.982;5.680;2023-05-29T06:00:51;14.8;53.4
78767;SHT31;68092;51.982;5.680;2023-05-29T06:03:21;14.9;53.4
78767;SHT31;68092;51.982;5.680;2023-05-29T06:05:52;14.9;53.2
78767;SHT31;68092;51.982;5.680;2023-05-29T06:08:22;14.9;52.6
78767;SHT31;68092;51.982;5.680;2023-05-29T06:10:53;15.0;52.2
78767;SHT31;68092;51.982;5.680;2023-05-29T06:13:22;15.0;53.0
78767;SHT31;68092;51.982;5.680;2023-05-29T06:15:52;15.1;51.9
78767;SHT31;68092;51.982;5.680;2023-05-29T06:18:22;15.1;52.7
78767;SHT31;68092;51.982;5.680;2023-05-29T06:20:53;15.2;52.5
78767;SHT31;68092;51.982;5.680;2023-05-29T06:23:24;15.2;51.8
78767;SHT31;68092;51.982;5.680;2023-05-29T06:25:53;15.3;52.4
78767;SHT31;68092;51.982;5.680;2023-05-29T06:28:23;15.3;51.0
78767;SHT31;68092;51.982;5.680;2023-05-29T06:30:57;15.4;51.5
78767;SHT31;68092;51.982;5.680;2023-05-29T06:33:28;15.4;51.2
78767;SHT31;68092;51.982;5.680;2023-05-29T06:35:59;15.5;51.2
78767;SHT31;68092;51.982;5.680;2023-05-29T06:38:29;15.5;51.4
78767;SHT31;68092;51.982;5.680;2023-05-29T06:40:58;15.6;51.0
78767;SHT31;68092;51.982;5.680;2023-05-29T06:43:29;15.7;51.0
78767;SHT31;68092;51.982;5.680;2023-05-29T06:45:59;15.7;49.8
78767;SHT31;68092;51.982;5.680;2023-05-29T06:48:32;15.8;49.1
78767;SHT31;68092;51.982;5.680;2023-05-29T06:51:02;15.9;48.5
78767;SHT31;68092;51.982;5.680;2023-05-29T06:53:37;15.9;49.4
78767;SHT31;68092;51.982;5.680;2023-05-29T06:56:14;16.0;48.7
78767;SHT31;68092;51.982;5.680;2023-05-29T06:58:46;16.0;49.1
78767;SHT31;68092;51.982;5.680;2023-05-29T07:01:16;16.1;48.8
78767;SHT31;68092;51.982;5.680;2023-05-29T07:03:51;16.2;48.2
78767;SHT31;68092;51.982;5.680;2023-05-29T07:06:21;16.3;47.6
78767;SHT31;68092;51.982;5.680;2023-05-29T07:08:50;16.3;48.0
78767;SHT31;68092;51.982;5.680;2023-05-29T07:11:20;16.4;47.8
78767;SHT31;68092;51.982;5.680;2023-05-29T07:13:50;16.4;47.9
78767;SHT31;68092;51.982;5.680;2023-05-29T07:16:20;16.5;47.9
78767;SHT31;68092;51.982;5.680;2023-05-29T07:18:49;16.5;46.9
78767;SHT31;68092;51.982;5.680;2023-05-29T07:21:19;16.6;45.9
78767;SHT31;68092;51.982;5.680;2023-05-29T07:23:49;16.6;46.1
78767;SHT31;68092;51.982;5.680;2023-05-29T07:26:19;16.7;47.0
78767;SHT31;68092;51.982;5.680;2023-05-29T07:28:51;16.7;46.6
78767;SHT31;68092;51.982;5.680;2023-05-29T07:31:21;16.8;47.5
78767;SHT31;68092;51.982;5.680;2023-05-29T07:33:50;16.9;48.3
78767;SHT31;68092;51.982;5.680;2023-05-29T07:36:20;16.9;48.2
78767;SHT31;68092;51.982;5.680;2023-05-29T07:38:51;17.0;46.6
78767;SHT31;68092;51.982;5.680;2023-05-29T07:41:32;17.1;46.8
78767;SHT31;68092;51.982;5.680;2023-05-29T07:44:02;17.2;46.2
78767;SHT31;68092;51.982;5.680;2023-05-29T07:46:33;17.2;46.1
78767;SHT31;68092;51.982;5.680;2023-05-29T07:49:03;17.3;45.2
78767;SHT31;68092;51.982;5.680;2023-05-29T07:51:33;17.3;45.2
78767;SHT31;68092;51.982;5.680;2023-05-29T07:54:04;17.4;45.0
78767;SHT31;68092;51.982;5.680;2023-05-29T07:56:34;17.4;45.6
78767;SHT31;68092;51.982;5.680;2023-05-29T07:59:04;17.5;45.9
78767;SHT31;68092;51.982;5.680;2023-05-29T08:01:37;17.5;46.4
78767;SHT31;68092;51.982;5.680;2023-05-29T08:04:07;17.6;46.7
78767;SHT31;68092;51.982;5.680;2023-05-29T08:06:36;17.6;46.4
78767;SHT31;68092;51.982;5.680;2023-05-29T08:09:06;17.7;47.8
78767;SHT31;68092;51.982;5.680;2023-05-29T08:11:37;17.8;44.7
78767;SHT31;68092;51.982;5.680;2023-05-29T08:14:07;17.9;45.7
78767;SHT31;68092;51.982;5.680;2023-05-29T08:16:37;18.0;43.6
78767;SHT31;68092;51.982;5.680;2023-05-29T08:19:08;18.0;44.1
78767;SHT31;68092;51.982;5.680;2023-05-29T08:21:39;18.1;44.5
78767;SHT31;68092;51.982;5.680;2023-05-29T08:24:11;18.2;43.7
78767;SHT31;68092;51.982;5.680;2023-05-29T08:26:41;18.3;44.3
78767;SHT31;68092;51.982;5.680;2023-05-29T08:29:15;18.3;44.6
78767;SHT31;68092;51.982;5.680;2023-05-29T08:31:44;18.4;44.5
78767;SHT31;68092;51.982;5.680;2023-05-29T08:34:14;18.5;45.0
78767;SHT31;68092;51.982;5.680;2023-05-29T08:36:44;18.6;45.4
78767;SHT31;68092;51.982;5.680;2023-05-29T08:39:14;18.7;44.3
78767;SHT31;68092;51.982;5.680;2023-05-29T08:41:55;18.8;44.2
78767;SHT31;68092;51.982;5.680;2023-05-29T08:44:34;18.9;43.9
78767;SHT31;68092;51.982;5.680;2023-05-29T08:47:07;19.0;43.2
78767;SHT31;68092;51.982;5.680;2023-05-29T08:49:41;19.1;44.4
78767;SHT31;68092;51.982;5.680;2023-05-29T08:52:15;19.2;43.2
78767;SHT31;68092;51.982;5.680;2023-05-29T08:54:46;19.3;44.6
78767;SHT31;68092;51.982;5.680;2023-05-29T08:57:17;19.4;44.8
78767;SHT31;68092;51.982;5.680;2023-05-29T08:59:51;19.5;43.3
78767;SHT31;68092;51.982;5.680;2023-05-29T09:02:24;19.6;41.5
78767;SHT31;68092;51.982;5.680;2023-05-29T09:04:54;19.7;43.8
78767;SHT31;68092;51.982;5.680;2023-05-29T09:07:29;19.8;44.0
78767;SHT31;68092;51.982;5.680;2023-05-29T09:10:00;19.9;42.2
78767;SHT31;68092;51.982;5.680;2023-05-29T09:12:30;20.0;42.5
78767;SHT31;68092;51.982;5.680;2023-05-29T09:15:01;20.1;43.5
78767;SHT31;68092;51.982;5.680;2023-05-29T09:17:33;20.3;41.5
78767;SHT31;68092;51.982;5.680;2023-05-29T09:20:03;20.4;42.1
78767;SHT31;68092;51.982;5.680;2023-05-29T09:22:35;20.5;39.8
78767;SHT31;68092;51.982;5.680;2023-05-29T09:25:08;20.6;40.3
78767;SHT31;68092;51.982;5.680;2023-05-29T09:27:40;20.7;42.5
78767;SHT31;68092;51.982;5.680;2023-05-29T09:30:14;20.8;41.0
78767;SHT31;68092;51.982;5.680;2023-05-29T09:32:53;20.9;39.9
78767;SHT31;68092;51.982;5.680;2023-05-29T09:35:23;21.0;38.9
78767;SHT31;68092;51.982;5.680;2023-05-29T09:37:56;21.1;39.1
78767;SHT31;68092;51.982;5.680;2023-05-29T09:40:25;21.2;41.0
78767;SHT31;68092;51.982;5.680;2023-05-29T09:42:55;21.3;38.6
78767;SHT31;68092;51.982;5.680;2023-05-29T09:45:26;21.4;38.6
78767;SHT31;68092;51.982;5.680;2023-05-29T09:47:56;21.5;38.3
78767;SHT31;68092;51.982;5.680;2023-05-29T09:50:28;21.6;39.0
78767;SHT31;68092;51.982;5.680;2023-05-29T09:52:58;21.7;38.8
78767;SHT31;68092;51.982;5.680;2023-05-29T09:55:31;21.8;39.0
78767;SHT31;68092;51.982;5.680;2023-05-29T09:58:09;22.0;37.3
78767;SHT31;68092;51.982;5.680;2023-05-29T10:00:42;22.1;36.7
78767;SHT31;68092;51.982;5.680;2023-05-29T10:03:15;22.3;35.8
78767;SHT31;68092;51.982;5.680;2023-05-29T10:05:55;22.5;37.5
78767;SHT31;68092;51.982;5.680;2023-05-29T10:08:34;22.6;37.6
78767;SHT31;68092;51.982;5.680;2023-05-29T10:11:07;22.8;36.2
78767;SHT31;68092;51.982;5.680;2023-05-29T10:13:45;23.0;36.2
78767;SHT31;68092;51.982;5.680;2023-05-29T10:16:34;23.2;36.1
78767;SHT31;68092;51.982;5.680;2023-05-29T10:19:12;23.3;35.6
78767;SHT31;68092;51.982;5.680;2023-05-29T10:21:45;23.5;34.7
78767;SHT31;68092;51.982;5.680;2023-05-29T10:24:17;23.7;35.1
78767;SHT31;68092;51.982;5.680;2023-05-29T10:26:51;23.9;34.3
78767;SHT31;68092;51.982;5.680;2023-05-29T10:29:28;24.0;34.0
78767;SHT31;68092;51.982;5.680;2023-05-29T10:32:53;24.4;31.4
78767;SHT31;68092;51.982;5.680;2023-05-29T10:35:44;24.8;32.3
78767;SHT31;68092;51.982;5.680;2023-05-29T10:38:16;25.0;31.4
78767;SHT31;68092;51.982;5.680;2023-05-29T10:40:49;25.3;29.9
78767;SHT31;68092;51.982;5.680;2023-05-29T10:43:33;25.4;29.1
78767;SHT31;68092;51.982;5.680;2023-05-29T10:47:34;25.5;29.5
78767;SHT31;68092;51.982;5.680;2023-05-29T10:50:37;25.6;29.1
78767;SHT31;68092;51.982;5.680;2023-05-29T10:53:31;25.7;29.3
78767;SHT31;68092;51.982;5.680;2023-05-29T10:58:04;25.8;31.8
78767;SHT31;68092;51.982;5.680;2023-05-29T11:05:22;26.0;28.2
78767;SHT31;68092;51.982;5.680;2023-05-29T11:07:55;26.1;27.6
78767;SHT31;68092;51.982;5.680;2023-05-29T11:11:02;26.2;30.5
78767;SHT31;68092;51.982;5.680;2023-05-29T11:13:35;26.3;31.3
78767;SHT31;68092;51.982;5.680;2023-05-29T11:16:35;26.4;30.0
78767;SHT31;68092;51.982;5.680;2023-05-29T11:19:07;26.5;30.6
78767;SHT31;68092;51.982;5.680;2023-05-29T11:24:43;26.6;29.6
78767;SHT31;68092;51.982;5.680;2023-05-29T11:27:13;26.7;30.5
78767;SHT31;68092;51.982;5.680;2023-05-29T11:29:45;26.7;30.5
78767;SHT31;68092;51.982;5.680;2023-05-29T11:32:27;26.8;29.7
78767;SHT31;68092;51.982;5.680;2023-05-29T11:35:00;26.9;30.5
78767;SHT31;68092;51.982;5.680;2023-05-29T11:37:31;27.0;29.3
78767;SHT31;68092;51.982;5.680;2023-05-29T11:40:03;27.1;27.6
78767;SHT31;68092;51.982;5.680;2023-05-29T11:42:34;27.2;27.0
78767;SHT31;68092;51.982;5.680;2023-05-29T11:45:15;27.2;26.8
78767;SHT31;68092;51.982;5.680;2023-05-29T11:47:57;27.3;28.5
78767;SHT31;68092;51.982;5.680;2023-05-29T11:50:52;27.4;26.6
78767;SHT31;68092;51.982;5.680;2023-05-29T11:53:23;27.4;28.3
78767;SHT31;68092;51.982;5.680;2023-05-29T11:56:07;27.5;27.6
78767;SHT31;68092;51.982;5.680;2023-05-29T11:58:38;27.6;27.9
78767;SHT31;68092;51.982;5.680;2023-05-29T12:01:09;27.6;28.3
78767;SHT31;68092;51.982;5.680;2023-05-29T12:03:41;27.7;29.0
78767;SHT31;68092;51.982;5.680;2023-05-29T12:06:11;27.8;27.3
78767;SHT31;68092;51.982;5.680;2023-05-29T12:08:41;27.9;28.4
78767;SHT31;68092;51.982;5.680;2023-05-29T12:11:10;28.0;26.4
78767;SHT31;68092;51.982;5.680;2023-05-29T12:13:40;28.0;27.6
78767;SHT31;68092;51.982;5.680;2023-05-29T12:16:16;28.1;27.5
78767;SHT31;68092;51.982;5.680;2023-05-29T12:18:46;28.2;27.5
78767;SHT31;68092;51.982;5.680;2023-05-29T12:21:17;28.3;28.2
78767;SHT31;68092;51.982;5.680;2023-05-29T12:23:51;28.4;27.8
78767;SHT31;68092;51.982;5.680;2023-05-29T12:26:24;28.4;26.7
78767;SHT31;68092;51.982;5.680;2023-05-29T12:28:56;28.5;27.4
78767;SHT31;68092;51.982;5.680;2023-05-29T12:31:30;28.6;25.2
78767;SHT31;68092;51.982;5.680;2023-05-29T12:34:07;28.6;26.2
78767;SHT31;68092;51.982;5.680;2023-05-29T12:36:39;28.7;25.6
78767;SHT31;68092;51.982;5.680;2023-05-29T12:39:11;28.7;26.6
78767;SHT31;68092;51.982;5.680;2023-05-29T12:41:40;28.8;25.2
78767;SHT31;68092;51.982;5.680;2023-05-29T12:44:10;28.8;26.4
78767;SHT31;68092;51.982;5.680;2023-05-29T12:46:41;28.8;25.0
78767;SHT31;68092;51.982;5.680;2023-05-29T12:49:15;28.8;25.7
78767;SHT31;68092;51.982;5.680;2023-05-29T12:51:48;28.8;25.1
78767;SHT31;68092;51.982;5.680;2023-05-29T12:54:20;28.9;25.9
78767;SHT31;68092;51.982;5.680;2023-05-29T12:56:53;28.9;25.8
78767;SHT31;68092;51.982;5.680;2023-05-29T12:59:24;29.0;26.7
78767;SHT31;68092;51.982;5.680;2023-05-29T13:01:53;29.0;26.3
78767;SHT31;68092;51.982;5.680;2023-05-29T13:04:23;29.1;25.8
78767;SHT31;68092;51.982;5.680;2023-05-29T13:06:53;29.2;24.9
78767;SHT31;68092;51.982;5.680;2023-05-29T13:09:23;29.3;25.2
78767;SHT31;68092;51.982;5.680;2023-05-29T13:11:54;29.4;23.8
78767;SHT31;68092;51.982;5.680;2023-05-29T13:14:24;29.5;24.4
78767;SHT31;68092;51.982;5.680;2023-05-29T13:16:54;29.5;25.1
78767;SHT31;68092;51.982;5.680;2023-05-29T13:19:24;29.6;24.6
78767;SHT31;68092;51.982;5.680;2023-05-29T13:21:54;29.7;24.7
78767;SHT31;68092;51.982;5.680;2023-05-29T13:24:24;29.8;24.1
78767;SHT31;68092;51.982;5.680;2023-05-29T13:26:55;29.9;24.4
78767;SHT31;68092;51.982;5.680;2023-05-29T13:29:24;30.0;22.0
78767;SHT31;68092;51.982;5.680;2023-05-29T13:31:54;30.0;21.5
78767;SHT31;68092;51.982;5.680;2023-05-29T13:34:23;30.1;22.0
78767;SHT31;68092;51.982;5.680;2023-05-29T13:36:56;30.1;21.6
78767;SHT31;68092;51.982;5.680;2023-05-29T13:39:32;30.1;21.0
78767;SHT31;68092;51.982;5.680;2023-05-29T13:42:02;30.2;21.0
78767;SHT31;68092;51.982;5.680;2023-05-29T13:44:33;30.2;20.6
78767;SHT31;68092;51.982;5.680;2023-05-29T13:47:05;30.2;23.0
78767;SHT31;68092;51.982;5.680;2023-05-29T13:49:35;30.2;22.6
78767;SHT31;68092;51.982;5.680;2023-05-29T13:52:09;30.3;22.8
78767;SHT31;68092;51.982;5.680;2023-05-29T13:54:40;30.3;23.6
78767;SHT31;68092;51.982;5.680;2023-05-29T13:57:10;30.3;22.7
78767;SHT31;68092;51.982;5.680;2023-05-29T13:59:40;30.3;23.0
78767;SHT31;68092;51.982;5.680;2023-05-29T14:02:11;30.3;22.4
78767;SHT31;68092;51.982;5.680;2023-05-29T14:04:42;30.3;23.6
78767;SHT31;68092;51.982;5.680;2023-05-29T14:07:11;30.3;23.1
78767;SHT31;68092;51.982;5.680;2023-05-29T14:09:41;30.3;23.3
78767;SHT31;68092;51.982;5.680;2023-05-29T14:12:10;30.3;22.8
78767;SHT31;68092;51.982;5.680;2023-05-29T14:14:42;30.4;24.3
78767;SHT31;68092;51.982;5.680;2023-05-29T14:17:13;30.4;24.9
78767;SHT31;68092;51.982;5.680;2023-05-29T14:19:43;30.4;23.4
78767;SHT31;68092;51.982;5.680;2023-05-29T14:22:16;30.5;23.8
78767;SHT31;68092;51.982;5.680;2023-05-29T14:24:46;30.5;23.6
78767;SHT31;68092;51.982;5.680;2023-05-29T14:27:17;30.5;22.5
78767;SHT31;68092;51.982;5.680;2023-05-29T14:29:47;30.6;21.9
78767;SHT31;68092;51.982;5.680;2023-05-29T14:32:17;30.6;23.3
78767;SHT31;68092;51.982;5.680;2023-05-29T14:34:49;30.6;23.5
78767;SHT31;68092;51.982;5.680;2023-05-29T14:37:21;30.7;24.5
78767;SHT31;68092;51.982;5.680;2023-05-29T14:39:51;30.7;22.0
78767;SHT31;68092;51.982;5.680;2023-05-29T14:42:22;30.7;22.6
78767;SHT31;68092;51.982;5.680;2023-05-29T14:44:52;30.7;22.2
78767;SHT31;68092;51.982;5.680;2023-05-29T14:47:21;30.7;21.5
78767;SHT31;68092;51.982;5.680;2023-05-29T14:49:52;30.7;22.8
78767;SHT31;68092;51.982;5.680;2023-05-29T14:52:22;30.6;21.8
78767;SHT31;68092;51.982;5.680;2023-05-29T14:54:52;30.6;23.5
78767;SHT31;68092;51.982;5.680;2023-05-29T14:57:24;30.6;22.6
78767;SHT31;68092;51.982;5.680;2023-05-29T14:59:54;30.7;23.0
78767;SHT31;68092;51.982;5.680;2023-05-29T15:02:25;30.7;21.8
78767;SHT31;68092;51.982;5.680;2023-05-29T15:04:55;30.7;23.2
78767;SHT31;68092;51.982;5.680;2023-05-29T15:07:24;30.7;22.2
78767;SHT31;68092;51.982;5.680;2023-05-29T15:09:54;30.7;21.2
78767;SHT31;68092;51.982;5.680;2023-05-29T15:12:24;30.7;20.9
78767;SHT31;68092;51.982;5.680;2023-05-29T15:14:55;30.7;22.3
78767;SHT31;68092;51.982;5.680;2023-05-29T15:17:24;30.7;23.1
78767;SHT31;68092;51.982;5.680;2023-05-29T15:19:54;30.7;21.2
78767;SHT31;68092;51.982;5.680;2023-05-29T15:22:24;30.8;21.7
78767;SHT31;68092;51.982;5.680;2023-05-29T15:25:12;30.9;21.8
78767;SHT31;68092;51.982;5.680;2023-05-29T15:27:44;30.9;21.9
78767;SHT31;68092;51.982;5.680;2023-05-29T15:30:15;30.9;21.0
78767;SHT31;68092;51.982;5.680;2023-05-29T15:32:47;30.8;22.9
78767;SHT31;68092;51.982;5.680;2023-05-29T15:35:16;30.8;21.1
78767;SHT31;68092;51.982;5.680;2023-05-29T15:37:46;30.7;21.7
78767;SHT31;68092;51.982;5.680;2023-05-29T15:40:20;30.7;21.5
78767;SHT31;68092;51.982;5.680;2023-05-29T15:42:49;30.6;21.3
78767;SHT31;68092;51.982;5.680;2023-05-29T15:45:19;30.6;22.9
78767;SHT31;68092;51.982;5.680;2023-05-29T15:47:51;30.5;22.0
78767;SHT31;68092;51.982;5.680;2023-05-29T15:50:31;30.5;21.5
78767;SHT31;68092;51.982;5.680;2023-05-29T15:53:01;30.5;21.8
78767;SHT31;68092;51.982;5.680;2023-05-29T15:55:34;30.4;21.5
78767;SHT31;68092;51.982;5.680;2023-05-29T15:58:07;30.4;21.0
78767;SHT31;68092;51.982;5.680;2023-05-29T16:00:37;30.3;21.9
78767;SHT31;68092;51.982;5.680;2023-05-29T16:03:07;30.2;22.0
78767;SHT31;68092;51.982;5.680;2023-05-29T16:05:39;30.2;22.7
78767;SHT31;68092;51.982;5.680;2023-05-29T16:08:08;30.1;23.6
78767;SHT31;68092;51.982;5.680;2023-05-29T16:10:38;30.1;23.4
78767;SHT31;68092;51.982;5.680;2023-05-29T16:13:09;30.1;23.4
78767;SHT31;68092;51.982;5.680;2023-05-29T16:15:41;30.0;23.1
78767;SHT31;68092;51.982;5.680;2023-05-29T16:18:13;30.0;22.1
78767;SHT31;68092;51.982;5.680;2023-05-29T16:20:43;30.0;22.7
78767;SHT31;68092;51.982;5.680;2023-05-29T16:23:14;30.0;23.2
78767;SHT31;68092;51.982;5.680;2023-05-29T16:25:48;30.0;24.2
78767;SHT31;68092;51.982;5.680;2023-05-29T16:28:18;29.9;23.7
78767;SHT31;68092;51.982;5.680;2023-05-29T16:30:48;29.9;23.6
78767;SHT31;68092;51.982;5.680;2023-05-29T16:33:20;29.9;22.4
78767;SHT31;68092;51.982;5.680;2023-05-29T16:35:49;29.9;21.5
78767;SHT31;68092;51.982;5.680;2023-05-29T16:38:19;29.8;22.4
78767;SHT31;68092;51.982;5.680;2023-05-29T16:40:49;29.8;21.3
78767;SHT31;68092;51.982;5.680;2023-05-29T16:43:18;29.7;21.5